Time,TemperatureF,DewpointF,PressureIn,WindDirection,WindDirectionDegrees,WindSpeedMPH,WindSpeedGustMPH,Humidity,HourlyPrecipIn,Conditions,Clouds,dailyrainin,SolarRadiationWatts/m^2,SoftwareType,DateUTC
2013-07-16 00:00:00,72.7,68.9,30.03,North,5,3.0,5.0,88,0.00,CLR,,0.00,0.0,WeatherDisplay:10.37,2013-07-15 22:00:00,
2013-07-16 00:10:00,72.8,69.0,30.03,North,6,0.0,4.0,88,0.00,CLR,,0.00,0.0,WeatherDisplay:10.37,2013-07-15 22:10:00,
2013-07-16 00:30:00,72.8,69.0,30.02,North,6,0.0,4.0,88,0.00,CLR,,0.00,0.0,WeatherDisplay:10.37,2013-07-15 22:30:00,
2013-07-16 00:40:00,72.3,68.5,30.03,North,6,0.0,0.0,88,0.00,CLR,,0.00,0.0,WeatherDisplay:10.37,2013-07-15 22:40:00,
2013-07-16 00:50:00,72.1,68.3,30.03,North,5,0.0,0.0,88,0.00,CLR,,0.00,0.0,WeatherDisplay:10.37,2013-07-15 22:50:00,
2013-07-16 01:00:00,71.8,68.1,30.03,North,6,0.0,0.0,88,0.00,CLR,,0.00,0.0,WeatherDisplay:10.37,2013-07-15 23:00:00,
2013-07-16 01:20:00,71.5,67.8,30.03,North,6,0.0,0.0,88,0.00,CLR,,0.00,0.0,WeatherDisplay:10.37,2013-07-15 23:20:00,
2013-07-16 01:30:00,71.5,67.8,30.03,North,5,0.0,0.0,88,0.00,CLR,,0.00,0.0,WeatherDisplay:10.37,2013-07-15 23:30:00,
2013-07-16 01:40:00,71.1,67.7,30.03,North,6,0.0,1.0,89,0.00,CLR,,0.00,0.0,WeatherDisplay:10.37,2013-07-15 23:40:00,
2013-07-16 02:00:00,70.1,66.7,30.03,North,5,0.0,0.0,89,0.00,CLR,,0.00,0.0,WeatherDisplay:10.37,2013-07-16 00:00:00,
2013-07-16 02:10:00,70.1,66.7,30.03,North,6,0.0,0.0,89,0.00,CLR,,0.00,0.0,WeatherDisplay:10.37,2013-07-16 00:10:00,
2013-07-16 02:20:00,69.6,66.2,30.03,North,6,0.0,0.0,89,0.00,CLR,,0.00,0.0,WeatherDisplay:10.37,2013-07-16 00:20:00,
2013-07-16 02:30:00,69.7,66.4,30.03,North,5,0.0,0.0,89,0.00,CLR,,0.00,0.0,WeatherDisplay:10.37,2013-07-16 00:30:00,
2013-07-16 02:40:00,69.6,66.2,30.03,North,8,0.0,0.0,89,0.00,CLR,,0.00,0.0,WeatherDisplay:10.37,2013-07-16 00:40:00,
2013-07-16 02:50:00,69.4,66.0,30.03,North,8,0.0,0.0,89,0.00,CLR,,0.00,0.0,WeatherDisplay:10.37,2013-07-16 00:50:00,
2013-07-16 03:00:00,69.3,65.9,30.03,North,7,0.0,0.0,89,0.00,CLR,,0.00,0.0,WeatherDisplay:10.37,2013-07-16 01:00:00,
2013-07-16 03:10:00,69.4,66.0,30.03,North,7,0.0,0.0,89,0.00,CLR,,0.00,0.0,WeatherDisplay:10.37,2013-07-16 01:10:00,
2013-07-16 03:20:00,69.5,66.1,30.03,North,8,0.0,2.0,89,0.00,CLR,,0.00,0.0,WeatherDisplay:10.37,2013-07-16 01:20:00,
2013-07-16 03:30:00,68.9,65.5,30.03,North,6,0.0,2.0,89,0.00,CLR,,0.00,0.0,WeatherDisplay:10.37,2013-07-16 01:30:00,
2013-07-16 03:40:00,68.6,65.2,30.03,North,6,0.0,0.0,89,0.00,CLR,,0.00,0.0,WeatherDisplay:10.37,2013-07-16 01:40:00,
2013-07-16 03:50:00,67.9,64.2,30.03,North,6,0.0,0.0,88,0.00,CLR,,0.00,0.0,WeatherDisplay:10.37,2013-07-16 01:50:00,
2013-07-16 04:10:00,67.2,62.9,30.03,North,6,0.0,0.0,86,0.00,CLR,,0.00,0.0,WeatherDisplay:10.37,2013-07-16 02:10:00,
2013-07-16 04:30:00,66.8,61.8,30.03,North,6,0.0,0.0,84,0.00,CLR,,0.00,0.0,WeatherDisplay:10.37,2013-07-16 02:30:00,
2013-07-16 04:40:00,67.3,62.3,30.03,North,6,0.0,0.0,84,0.00,CLR,,0.00,0.0,WeatherDisplay:10.37,2013-07-16 02:40:00,
2013-07-16 04:50:00,66.4,61.1,30.03,North,6,0.0,0.0,83,0.00,CLR,,0.00,0.0,WeatherDisplay:10.37,2013-07-16 02:50:00,
2013-07-16 05:00:00,66.4,60.7,30.03,North,6,0.0,0.0,82,0.00,CLR,,0.00,0.0,WeatherDisplay:10.37,2013-07-16 03:00:00,
2013-07-16 05:10:00,66.4,60.7,30.03,North,7,0.0,0.0,82,0.00,CLR,,0.00,0.0,WeatherDisplay:10.37,2013-07-16 03:10:00,
2013-07-16 05:20:00,66.4,59.7,30.03,North,7,0.0,0.0,79,0.00,OVC,,0.00,0.0,WeatherDisplay:10.37,2013-07-16 03:20:00,
2013-07-16 05:40:00,67.0,56.5,30.04,North,6,0.0,3.0,69,0.00,OVC,,0.00,0.0,WeatherDisplay:10.37,2013-07-16 03:40:00,
2013-07-16 05:50:00,66.2,56.5,30.04,North,7,0.0,0.0,71,0.00,OVC,,0.00,5.0,WeatherDisplay:10.37,2013-07-16 03:50:00,
2013-07-16 06:00:00,67.0,56.1,30.04,North,7,0.0,3.0,68,0.00,BKN,,0.00,11.0,WeatherDisplay:10.37,2013-07-16 04:00:00,
2013-07-16 06:10:00,67.8,55.6,30.04,North,8,0.0,0.0,65,0.00,BKN,,0.00,18.0,WeatherDisplay:10.37,2013-07-16 04:10:00,
2013-07-16 06:20:00,67.6,55.0,30.04,North,7,0.0,0.0,64,0.00,BKN,,0.00,28.0,WeatherDisplay:10.37,2013-07-16 04:20:00,
2013-07-16 06:30:00,68.3,54.3,30.05,North,6,0.0,0.0,61,0.00,BKN,,0.00,44.0,WeatherDisplay:10.37,2013-07-16 04:30:00,
2013-07-16 06:40:00,68.8,54.3,30.05,North,6,0.0,0.0,60,0.00,BKN,,0.00,62.0,WeatherDisplay:10.37,2013-07-16 04:40:00,
2013-07-16 06:50:00,69.4,54.4,30.05,North,6,0.0,0.0,59,0.00,BKN,,0.00,84.0,WeatherDisplay:10.37,2013-07-16 04:50:00,
2013-07-16 07:00:00,69.9,55.4,30.06,North,6,0.0,0.0,60,0.00,BKN,,0.00,109.0,WeatherDisplay:10.37,2013-07-16 05:00:00,
2013-07-16 07:10:00,70.3,54.8,30.05,North,7,0.0,0.0,58,0.00,BKN,,0.00,130.0,WeatherDisplay:10.37,2013-07-16 05:10:00,
2013-07-16 07:20:00,70.8,55.7,30.05,North,8,0.0,0.0,59,0.00,BKN,,0.00,151.0,WeatherDisplay:10.37,2013-07-16 05:20:00,
2013-07-16 07:30:00,70.9,55.9,30.05,SE,131,0.0,0.0,59,0.00,BKN,,0.00,181.0,WeatherDisplay:10.37,2013-07-16 05:30:00,
2013-07-16 07:40:00,71.5,55.9,30.05,SE,136,0.0,0.0,58,0.00,BKN,,0.00,213.0,WeatherDisplay:10.37,2013-07-16 05:40:00,
2013-07-16 07:50:00,72.1,57.0,30.06,SSE,157,0.0,0.0,59,0.00,BKN,,0.00,237.0,WeatherDisplay:10.37,2013-07-16 05:50:00,
2013-07-16 08:00:00,72.8,56.7,30.06,SSE,168,0.0,0.0,57,0.00,BKN,,0.00,267.0,WeatherDisplay:10.37,2013-07-16 06:00:00,
2013-07-16 08:10:00,73.5,57.3,30.06,South,176,0.0,0.0,57,0.00,BKN,,0.00,302.0,WeatherDisplay:10.37,2013-07-16 06:10:00,
2013-07-16 08:20:00,75.0,55.1,30.06,SSW,193,0.0,0.0,50,0.00,SCT,,0.00,329.0,WeatherDisplay:10.37,2013-07-16 06:20:00,
2013-07-16 08:30:00,76.0,56.0,30.06,South,191,0.0,0.0,50,0.00,SCT,,0.00,359.0,WeatherDisplay:10.37,2013-07-16 06:30:00,
2013-07-16 08:40:00,76.7,56.7,30.06,SSW,193,0.0,0.0,50,0.00,SCT,,0.00,390.0,WeatherDisplay:10.37,2013-07-16 06:40:00,
2013-07-16 08:50:00,77.7,54.6,30.06,West,279,0.0,0.0,45,0.00,SCT,,0.00,420.0,WeatherDisplay:10.37,2013-07-16 06:50:00,
2013-07-16 09:00:00,79.4,55.0,30.06,North,6,0.0,0.0,43,0.00,SCT,,0.00,448.0,WeatherDisplay:10.37,2013-07-16 07:00:00,
2013-07-16 09:10:00,79.4,53.0,30.06,North,7,0.0,0.0,40,0.00,SCT,,0.00,478.0,WeatherDisplay:10.37,2013-07-16 07:10:00,
2013-07-16 09:20:00,80.7,54.1,30.06,North,8,0.0,0.0,40,0.00,SCT,,0.00,510.0,WeatherDisplay:10.37,2013-07-16 07:20:00,
2013-07-16 09:30:00,81.6,51.3,30.06,North,3,2.0,4.0,35,0.00,SCT,,0.00,536.0,WeatherDisplay:10.37,2013-07-16 07:30:00,
2013-07-16 09:40:00,81.1,52.4,30.06,North,1,2.0,7.0,37,0.00,SCT,,0.00,566.0,WeatherDisplay:10.37,2013-07-16 07:40:00,
2013-07-16 09:50:00,81.2,50.2,30.07,North,1,2.0,10.0,34,0.00,SCT,,0.00,589.0,WeatherDisplay:10.37,2013-07-16 07:50:00,
2013-07-16 10:00:00,82.8,51.6,30.07,North,1,3.0,6.0,34,0.00,SCT,,0.00,613.0,WeatherDisplay:10.37,2013-07-16 08:00:00,
2013-07-16 10:10:00,82.8,50.8,30.07,North,1,1.0,6.0,33,0.00,SCT,,0.00,643.0,WeatherDisplay:10.37,2013-07-16 08:10:00,
2013-07-16 10:20:00,83.8,50.8,30.07,North,2,0.0,4.0,32,0.00,SCT,,0.00,668.0,WeatherDisplay:10.37,2013-07-16 08:20:00,
2013-07-16 10:30:00,84.1,51.1,30.07,North,1,2.0,9.0,32,0.00,SCT,,0.00,691.0,WeatherDisplay:10.37,2013-07-16 08:30:00,
2013-07-16 10:40:00,83.8,49.9,30.07,North,2,5.0,12.0,31,0.00,SCT,,0.00,712.0,WeatherDisplay:10.37,2013-07-16 08:40:00,
2013-07-16 10:50:00,83.8,49.1,30.07,North,1,6.0,12.0,30,0.00,SCT,,0.00,737.0,WeatherDisplay:10.37,2013-07-16 08:50:00,
2013-07-16 11:00:00,84.0,49.2,30.07,North,2,2.0,10.0,30,0.00,SCT,,0.00,758.0,WeatherDisplay:10.37,2013-07-16 09:00:00,
2013-07-16 11:10:00,84.6,48.9,30.07,North,1,0.0,8.0,29,0.00,SCT,,0.00,775.0,WeatherDisplay:10.37,2013-07-16 09:10:00,
2013-07-16 11:20:00,85.5,50.5,30.08,North,7,6.0,9.0,30,0.00,FEW,,0.00,795.0,WeatherDisplay:10.37,2013-07-16 09:20:00,
2013-07-16 11:30:00,85.3,49.5,30.08,North,1,3.0,12.0,29,0.00,FEW,,0.00,816.0,WeatherDisplay:10.37,2013-07-16 09:30:00,
2013-07-16 11:40:00,84.9,49.1,30.08,North,3,6.0,12.0,29,0.00,FEW,,0.00,831.0,WeatherDisplay:10.37,2013-07-16 09:40:00,
2013-07-16 11:50:00,84.7,48.9,30.08,North,2,10.0,16.0,29,0.00,FEW,,0.00,846.0,WeatherDisplay:10.37,2013-07-16 09:50:00,
2013-07-16 12:00:00,84.7,48.9,30.08,North,2,7.0,15.0,29,0.00,FEW,,0.00,863.0,WeatherDisplay:10.37,2013-07-16 10:00:00,
2013-07-16 12:10:00,85.5,49.6,30.08,North,3,5.0,14.0,29,0.00,FEW,,0.00,870.0,WeatherDisplay:10.37,2013-07-16 10:10:00,
2013-07-16 12:20:00,85.9,49.0,30.07,North,6,6.0,12.0,28,0.00,FEW,,0.00,877.0,WeatherDisplay:10.37,2013-07-16 10:20:00,
2013-07-16 12:30:00,85.9,50.9,30.07,North,4,3.0,13.0,30,0.00,FEW,,0.00,888.0,WeatherDisplay:10.37,2013-07-16 10:30:00,
2013-07-16 12:40:00,86.4,50.4,30.07,North,2,6.0,10.0,29,0.00,FEW,,0.00,898.0,WeatherDisplay:10.37,2013-07-16 10:40:00,
2013-07-16 12:50:00,86.7,48.7,30.07,North,3,3.0,12.0,27,0.00,FEW,,0.00,898.0,WeatherDisplay:10.37,2013-07-16 10:50:00,
2013-07-16 13:00:00,86.5,49.5,30.07,North,3,3.0,13.0,28,0.00,FEW,,0.00,900.0,WeatherDisplay:10.37,2013-07-16 11:00:00,
2013-07-16 13:10:00,87.2,51.0,30.07,North,1,3.0,10.0,29,0.00,CLR,,0.00,914.0,WeatherDisplay:10.37,2013-07-16 11:10:00,
2013-07-16 13:20:00,86.7,50.6,30.07,North,0,6.0,14.0,29,0.00,CLR,,0.00,909.0,WeatherDisplay:10.37,2013-07-16 11:20:00,
2013-07-16 13:30:00,86.9,50.8,30.07,North,1,7.0,12.0,29,0.00,CLR,,0.00,907.0,WeatherDisplay:10.37,2013-07-16 11:30:00,
2013-07-16 13:40:00,88.2,50.9,30.07,North,2,5.0,12.0,28,0.00,CLR,,0.00,900.0,WeatherDisplay:10.37,2013-07-16 11:40:00,
2013-07-16 14:30:00,89.3,51.9,30.06,North,2,5.0,10.0,28,0.00,CLR,,0.00,886.0,WeatherDisplay:10.37,2013-07-16 12:30:00,
2013-07-16 14:40:00,88.2,51.9,30.05,North,5,1.0,9.0,29,0.00,CLR,,0.00,891.0,WeatherDisplay:10.37,2013-07-16 12:40:00,
2013-07-16 14:50:00,88.7,50.5,30.05,North,2,6.0,12.0,27,0.00,CLR,,0.00,891.0,WeatherDisplay:10.37,2013-07-16 12:50:00,
2013-07-16 15:00:00,88.9,51.6,30.05,North,3,5.0,10.0,28,0.00,CLR,,0.00,874.0,WeatherDisplay:10.37,2013-07-16 13:00:00,
2013-07-16 15:10:00,89.4,52.0,30.05,North,2,3.0,10.0,28,0.00,FEW,,0.00,237.0,WeatherDisplay:10.37,2013-07-16 13:10:00,
2013-07-16 15:20:00,88.8,50.5,30.05,North,1,3.0,13.0,27,0.00,CLR,,0.00,877.0,WeatherDisplay:10.37,2013-07-16 13:20:00,
2013-07-16 15:30:00,88.4,62.4,30.05,NNE,15,7.0,12.0,42,0.00,CLR,,0.00,861.0,WeatherDisplay:10.37,2013-07-16 13:30:00,
2013-07-16 15:50:00,83.6,61.8,30.05,WNW,282,6.0,14.0,48,0.00,CLR,,0.00,835.0,WeatherDisplay:10.37,2013-07-16 13:50:00,
2013-07-16 16:00:00,84.0,62.2,30.05,WNW,298,7.0,14.0,48,0.00,CLR,,0.00,744.0,WeatherDisplay:10.37,2013-07-16 14:00:00,
2013-07-16 16:10:00,83.5,64.6,30.05,WNW,287,8.0,12.0,53,0.00,CLR,,0.00,691.0,WeatherDisplay:10.37,2013-07-16 14:10:00,
2013-07-16 16:20:00,82.7,62.2,30.05,WNW,300,5.0,13.0,50,0.00,CLR,,0.00,680.0,WeatherDisplay:10.37,2013-07-16 14:20:00,
2013-07-16 16:30:00,83.0,59.5,30.05,WNW,289,7.0,14.0,45,0.00,CLR,,0.00,649.0,WeatherDisplay:10.37,2013-07-16 14:30:00,
2013-07-16 16:40:00,82.6,60.4,30.06,WNW,285,5.0,13.0,47,0.00,CLR,,0.00,622.0,WeatherDisplay:10.37,2013-07-16 14:40:00,
2013-07-16 16:50:00,83.2,60.9,30.05,WNW,285,5.0,14.0,47,0.00,CLR,,0.00,596.0,WeatherDisplay:10.37,2013-07-16 14:50:00,
2013-07-16 17:00:00,82.8,59.9,30.06,WNW,283,6.0,15.0,46,0.00,CLR,,0.00,561.0,WeatherDisplay:10.37,2013-07-16 15:00:00,
2013-07-16 17:10:00,82.4,59.6,30.06,WNW,289,8.0,15.0,46,0.00,CLR,,0.00,543.0,WeatherDisplay:10.37,2013-07-16 15:10:00,
2013-07-16 17:20:00,82.4,57.7,30.06,WNW,286,5.0,14.0,43,0.00,CLR,,0.00,504.0,WeatherDisplay:10.37,2013-07-16 15:20:00,
2013-07-16 17:30:00,82.9,58.7,30.06,NW,306,5.0,14.0,44,0.00,CLR,,0.00,480.0,WeatherDisplay:10.37,2013-07-16 15:30:00,
2013-07-16 17:40:00,83.0,57.5,30.06,WNW,301,6.0,13.0,42,0.00,CLR,,0.00,452.0,WeatherDisplay:10.37,2013-07-16 15:40:00,
2013-07-16 17:50:00,82.8,56.0,30.05,WNW,286,3.0,12.0,40,0.00,CLR,,0.00,427.0,WeatherDisplay:10.37,2013-07-16 15:50:00,
2013-07-16 18:00:00,82.8,56.7,30.05,WNW,289,5.0,12.0,41,0.00,CLR,,0.00,388.0,WeatherDisplay:10.37,2013-07-16 16:00:00,
2013-07-16 18:10:00,83.2,56.4,30.05,WNW,295,3.0,9.0,40,0.00,CLR,,0.00,348.0,WeatherDisplay:10.37,2013-07-16 16:10:00,
2013-07-16 18:20:00,83.4,56.5,30.04,WNW,285,5.0,12.0,40,0.00,CLR,,0.00,327.0,WeatherDisplay:10.37,2013-07-16 16:20:00,
2013-07-16 18:30:00,83.2,57.7,30.04,West,278,2.0,12.0,42,0.00,CLR,,0.00,295.0,WeatherDisplay:10.37,2013-07-16 16:30:00,
2013-07-16 18:40:00,83.4,55.8,30.04,WNW,284,5.0,9.0,39,0.00,CLR,,0.00,278.0,WeatherDisplay:10.37,2013-07-16 16:40:00,
2013-07-16 18:50:00,83.6,57.4,30.04,WNW,290,0.0,6.0,41,0.00,CLR,,0.00,239.0,WeatherDisplay:10.37,2013-07-16 16:50:00,
2013-07-16 19:00:00,83.8,56.9,30.04,West,274,1.0,5.0,40,0.00,CLR,,0.00,200.0,WeatherDisplay:10.37,2013-07-16 17:00:00,
2013-07-16 19:10:00,83.2,57.7,30.04,WNW,300,0.0,6.0,42,0.00,CLR,,0.00,172.0,WeatherDisplay:10.37,2013-07-16 17:10:00,
2013-07-16 19:20:00,82.8,58.0,30.04,West,271,2.0,6.0,43,0.00,CLR,,0.00,146.0,WeatherDisplay:10.37,2013-07-16 17:20:00,
2013-07-16 19:30:00,82.3,58.8,30.04,WSW,254,1.0,5.0,45,0.00,CLR,,0.00,109.0,WeatherDisplay:10.37,2013-07-16 17:30:00,
2013-07-16 19:40:00,81.8,59.0,30.05,West,275,1.0,4.0,46,0.00,OVC,,0.00,79.0,WeatherDisplay:10.37,2013-07-16 17:40:00,
2013-07-16 19:50:00,81.2,59.6,30.05,West,265,0.0,4.0,48,0.00,OVC,,0.00,63.0,WeatherDisplay:10.37,2013-07-16 17:50:00,
2013-07-16 20:00:00,80.3,61.6,30.05,West,278,0.0,7.0,53,0.00,OVC,,0.00,26.0,WeatherDisplay:10.37,2013-07-16 18:00:00,
2013-07-16 20:10:00,79.4,63.3,30.05,West,261,0.0,5.0,58,0.00,OVC,,0.00,18.0,WeatherDisplay:10.37,2013-07-16 18:10:00,
2013-07-16 20:20:00,78.6,64.5,30.05,WSW,247,0.0,3.0,62,0.00,OVC,,0.00,11.0,WeatherDisplay:10.37,2013-07-16 18:20:00,
2013-07-16 20:30:00,78.1,64.9,30.05,West,261,0.0,5.0,64,0.00,OVC,,0.00,5.0,WeatherDisplay:10.37,2013-07-16 18:30:00,
2013-07-16 20:40:00,77.6,64.9,30.06,West,266,0.0,3.0,65,0.00,OVC,,0.00,0.0,WeatherDisplay:10.37,2013-07-16 18:40:00,
2013-07-16 20:50:00,77.2,65.4,30.06,West,266,0.0,0.0,67,0.00,OVC,,0.00,0.0,WeatherDisplay:10.37,2013-07-16 18:50:00,
2013-07-16 21:00:00,76.7,65.3,30.06,West,264,0.0,0.0,68,0.00,CLR,,0.00,0.0,WeatherDisplay:10.37,2013-07-16 19:00:00,
2013-07-16 21:10:00,76.1,64.8,30.06,WNW,297,0.0,0.0,68,0.00,CLR,,0.00,0.0,WeatherDisplay:10.37,2013-07-16 19:10:00,
2013-07-16 21:20:00,75.4,64.6,30.06,North,6,0.0,1.0,69,0.00,CLR,,0.00,0.0,WeatherDisplay:10.37,2013-07-16 19:20:00,
2013-07-16 21:30:00,74.9,64.0,30.06,North,7,0.0,4.0,69,0.00,CLR,,0.00,0.0,WeatherDisplay:10.37,2013-07-16 19:30:00,
2013-07-16 21:40:00,74.6,63.3,30.07,North,8,0.0,1.0,68,0.00,CLR,,0.00,0.0,WeatherDisplay:10.37,2013-07-16 19:40:00,
2013-07-16 21:50:00,74.9,62.8,30.07,North,8,0.0,0.0,66,0.00,CLR,,0.00,0.0,WeatherDisplay:10.37,2013-07-16 19:50:00,
2013-07-16 22:00:00,74.9,62.3,30.07,North,8,0.0,0.0,65,0.00,CLR,,0.00,0.0,WeatherDisplay:10.37,2013-07-16 20:00:00,
2013-07-16 22:10:00,74.4,62.3,30.07,North,8,2.0,4.0,66,0.00,CLR,,0.00,0.0,WeatherDisplay:10.37,2013-07-16 20:10:00,
2013-07-16 22:20:00,74.6,62.5,30.07,North,8,0.0,4.0,66,0.00,CLR,,0.00,0.0,WeatherDisplay:10.37,2013-07-16 20:20:00,
2013-07-16 22:30:00,74.4,63.1,30.07,North,8,0.0,0.0,68,0.00,CLR,,0.00,0.0,WeatherDisplay:10.37,2013-07-16 20:30:00,
2013-07-16 22:40:00,74.2,62.5,30.07,North,8,0.0,0.0,67,0.00,CLR,,0.00,0.0,WeatherDisplay:10.37,2013-07-16 20:40:00,
2013-07-16 22:50:00,73.9,61.8,30.07,North,8,0.0,0.0,66,0.00,CLR,,0.00,0.0,WeatherDisplay:10.37,2013-07-16 20:50:00,
2013-07-16 23:00:00,73.9,61.8,30.07,North,8,2.0,4.0,66,0.00,CLR,,0.00,0.0,WeatherDisplay:10.37,2013-07-16 21:00:00,
2013-07-16 23:10:00,74.1,62.0,30.06,North,7,2.0,5.0,66,0.00,CLR,,0.00,0.0,WeatherDisplay:10.37,2013-07-16 21:10:00,
2013-07-16 23:20:00,74.6,62.1,30.07,North,7,1.0,4.0,65,0.00,CLR,,0.00,0.0,WeatherDisplay:10.37,2013-07-16 21:20:00,
2013-07-16 23:30:00,74.2,62.5,30.07,North,7,0.0,0.0,67,0.00,CLR,,0.00,0.0,WeatherDisplay:10.37,2013-07-16 21:30:00,
2013-07-16 23:40:00,73.5,62.7,30.07,North,8,2.0,4.0,69,0.00,CLR,,0.00,0.0,WeatherDisplay:10.37,2013-07-16 21:40:00,
2013-07-16 23:50:00,73.3,62.1,30.07,North,7,0.0,3.0,68,0.00,CLR,,0.00,0.0,WeatherDisplay:10.37,2013-07-16 21:50:00,